Impacts TAF Board
For situational awareness. Not to be used for flight planning purposes.
IDs:

KGUC - Gunnison Arpt, CO, US

Issued at 1724 UTC 17 Nov 2019
Updated at 1950 UTC 17 Nov 2019
Potential Impact None Slight Moderate High
Time1856Z 17/20Z 17/21Z 17/22Z 17/23Z 18/00Z 18/01Z 18/02Z 18/03Z 18/04Z 18/05Z 18/06Z 18/07Z 18/08Z>>
Type OBS PRVL PRVL PRVL PRVL PRVL PRVL PRVL PRVL PRVL PRVL PRVL PRVL PRVL
VIS 10 >6 >6 >6 >6 >6 >6 >6 >6 >6 >6 >6 >6 >6
CIG -- -- -- -- -- -- -- -- -- -- -- -- -- --
Cover CLR FEW FEW FEW FEW FEW FEW FEW FEW FEW FEW FEW FEW FEW
FltCat VFR VFR VFR VFR VFR VFR VFR VFR VFR VFR VFR VFR VFR VFR
WX -- -- -- -- -- -- -- -- -- -- -- -- -- --
WDir VRB 280 280 280 280 280 280 VRB VRB VRB VRB VRB VRB VRB
WSpd 0 7 7 7 7 7 7 4 4 4 4 4 4 4
WGst -- -- -- -- -- -- -- -- -- -- -- -- -- --
Raw TAF
KGUC 171724Z 1718/1818 26005KT P6SM SKC
  FM172000 28007KT P6SM FEW150 FEW250
  FM180200 VRB04KT P6SM FEW250


Raw METAR
KGUC 171856Z AUTO 00000KT 10SM CLR 09/M07 A3027 RMK AO2 SLP252 T00891072
KGUC 171756Z AUTO 00000KT 10SM CLR 04/M07 A3031 RMK AO2 SLP277 T00441067 10044 21111 58008
KGUC 171656Z AUTO 04003KT 10SM CLR 01/M07 A3033 RMK AO2 SLP291 T00111072 FZRANO

METAR Board
Radar Display
Forecast Discussion
For situational awareness. Not to be used for flight planning purposes.